Rechercher aéroport 
image banner adimage banner adimage banner ad
image banner ad

KBIH - Bishop

Situé à Bishop, United States

ICAO - BIH, IATA - BIH

Données fournies par Airmate  

Information générale

Coordonnées: N37°22'23" W118°21'49"
Élévation : 4124 feet MSL.
Variation magnétique : 15° East
Voir autres Aéroports à California

Données opérationnelles

Special qualification required
Heure actuelle UTC:
Heure actuelle locale:
Météo
METAR: KBIH 262322Z AUTO 14031G42KT 3SM HZ CLR 31/12 A2996 RMK AO2 PK WND 15044/2307 T03060117
TAF: KBIH 261720Z 2618/2718 15008KT P6SM SCT140 FM262100 16010G18KT P6SM VCTS SCT060 BKN100CB TEMPO 2623/2703 16020G35KT TSRA BKN050CB FM270800 17008KT P6SM BKN050 FM271400 17012G20KT P6SM BKN050
Voir NOTAMs / SUP AIP / TFR affectant cet aéroport [VIEW]
Fréquences de communication: [VIEW]

Pistes:

Identifiant RWYQFULongueur (ft)Largeur (ft)SurfaceLDA (ft)
12135°7498100ASPH
30315°7498100ASPH
0890°5567100ASPH
26270°5567100ASPH

Coordonnées de l'aéroport

Adresse: Bishop United States

Vue satellite de KBIH